Time;durP1;ratioP1;P1;durP2;ratioP2;P2;SDS_P1;SDS_P2;PMS_P1;PMS_P2;Temp;Humidity;BMP_temperature;BMP_pressure;BME280_temperature;BME280_humidity;BME280_pressure;Samples;Min_cycle;Max_cycle;Signal;HPM_P1;HPM_P2
2021/08/28 00:02:06;;;;;;;8.20;4.92;;;;;;;13.43;89.18;94316.05;1707475;83;21060;-53
2021/08/28 00:04:34;;;;;;;6.53;4.47;;;;;;;13.44;89.25;94317.58;1707828;84;21100;-53
2021/08/28 00:07:02;;;;;;;9.00;5.85;;;;;;;13.45;89.15;94323.25;1707570;83;20946;-52
2021/08/28 00:09:30;;;;;;;9.55;6.30;;;;;;;13.46;88.91;94333.06;1707522;82;20997;-53
2021/08/28 00:11:56;;;;;;;11.50;6.10;;;;;;;13.46;89.03;94333.06;1707677;82;21535;-53
2021/08/28 00:14:23;;;;;;;10.18;5.75;;;;;;;13.46;88.97;94334.44;1707868;84;20965;-53
2021/08/28 00:16:49;;;;;;;6.85;5.10;;;;;;;13.46;88.79;94335.19;1707667;83;21116;-53
2021/08/28 00:19:19;;;;;;;12.78;5.37;;;;;;;13.45;88.87;94335.05;1707487;83;21005;-53
2021/08/28 00:21:45;;;;;;;10.48;5.25;;;;;;;13.43;88.56;94333.38;1707605;82;21028;-53
2021/08/28 00:24:12;;;;;;;9.35;6.17;;;;;;;13.41;88.76;94336.49;1707727;82;20984;-53
2021/08/28 00:26:40;;;;;;;7.45;5.65;;;;;;;13.40;88.86;94332.17;1707627;82;20996;-53
2021/08/28 00:29:06;;;;;;;10.45;5.47;;;;;;;13.41;88.94;94332.34;1707862;84;21807;-53
2021/08/28 00:31:34;;;;;;;9.23;4.85;;;;;;;13.41;88.92;94329.59;1687418;83;20956;-53
2021/08/28 00:34:01;;;;;;;12.20;4.95;;;;;;;13.42;88.95;94329.09;1707583;83;21425;-53
2021/08/28 00:36:29;;;;;;;5.80;4.45;;;;;;;13.45;88.97;94330.16;1697395;84;21013;-54
2021/08/28 00:38:56;;;;;;;6.90;4.78;;;;;;;13.43;88.54;94325.73;1694731;84;21202;-53
2021/08/28 00:41:22;;;;;;;6.25;4.60;;;;;;;13.38;88.67;94331.89;1707245;83;21136;-53
2021/08/28 00:43:51;;;;;;;7.33;4.75;;;;;;;13.35;88.50;94322.57;1712248;82;20949;-52
2021/08/28 00:46:17;;;;;;;6.90;4.83;;;;;;;13.28;88.12;94328.45;1712540;83;21044;-53
2021/08/28 00:48:45;;;;;;;7.40;4.22;;;;;;;13.18;87.96;94333.16;1712425;82;21434;-53
2021/08/28 00:51:13;;;;;;;7.70;4.70;;;;;;;13.11;88.04;94333.53;1712307;82;21406;-53
2021/08/28 00:53:41;;;;;;;8.18;4.75;;;;;;;13.08;88.17;94335.86;1712407;83;21045;-53
2021/08/28 00:56:08;;;;;;;7.05;5.70;;;;;;;13.08;88.11;94341.38;1712371;83;20976;-53
2021/08/28 00:58:34;;;;;;;6.17;5.20;;;;;;;13.05;88.31;94331.28;1712711;83;21004;-53
2021/08/28 01:01:05;;;;;;;9.00;4.97;;;;;;;13.05;88.29;94334.05;1712351;83;21444;-53
2021/08/28 01:03:35;;;;;;;5.83;4.87;;;;;;;12.96;87.66;94332.72;1712707;83;20992;-53
2021/08/28 01:06:33;;;;;;;8.10;5.25;;;;;;;12.84;87.41;94339.22;1712324;82;21160;-53
2021/08/28 01:09:29;;;;;;;10.20;4.20;;;;;;;12.74;87.19;94341.91;1712062;82;20960;-53
2021/08/28 01:12:25;;;;;;;4.80;4.15;;;;;;;12.60;87.48;94349.50;1712390;83;20961;-54
2021/08/28 01:14:58;;;;;;;9.33;4.75;;;;;;;12.51;88.11;94350.17;1712650;82;20980;-53
2021/08/28 01:17:27;;;;;;;7.95;5.55;;;;;;;12.48;88.88;94346.34;1712361;83;20952;-52
2021/08/28 01:20:18;;;;;;;11.40;5.53;;;;;;;12.45;88.92;94343.15;1712665;83;21042;-53
2021/08/28 01:22:49;;;;;;;15.78;6.85;;;;;;;12.42;89.15;94345.47;1686613;83;21000;-53
2021/08/28 01:25:23;;;;;;;12.10;6.60;;;;;;;12.37;89.22;94351.64;1680443;82;20964;-53
2021/08/28 01:28:07;;;;;;;11.78;6.67;;;;;;;12.36;89.54;94336.31;1712623;83;20977;-53
2021/08/28 01:30:35;;;;;;;8.88;5.92;;;;;;;12.36;89.79;94349.34;1716109;83;21016;-54
2021/08/28 01:33:04;;;;;;;11.80;6.35;;;;;;;12.30;90.11;94350.58;1712286;83;21113;-54
2021/08/28 01:35:30;;;;;;;6.15;5.55;;;;;;;12.26;90.38;94347.23;1707526;82;21543;-54
2021/08/28 01:37:58;;;;;;;12.58;6.12;;;;;;;12.26;90.62;94348.62;1704486;84;21006;-53
2021/08/28 01:40:29;;;;;;;11.35;6.50;;;;;;;12.30;90.32;94347.83;1681795;83;21024;-53
2021/08/28 01:42:59;;;;;;;14.43;7.08;;;;;;;12.31;90.00;94347.22;1712474;83;21488;-52
2021/08/28 01:45:26;;;;;;;7.03;5.50;;;;;;;12.31;90.33;94340.33;1712503;83;21729;-53
2021/08/28 01:47:54;;;;;;;10.28;5.25;;;;;;;12.36;90.21;94341.06;1712641;83;21013;-52
2021/08/28 01:50:24;;;;;;;5.12;3.95;;;;;;;12.33;89.86;94341.39;1715132;83;21499;-52
2021/08/28 01:52:52;;;;;;;5.25;3.83;;;;;;;12.29;89.49;94342.79;1704640;83;20965;-52
2021/08/28 01:55:21;;;;;;;9.63;4.33;;;;;;;12.27;89.40;94345.25;1704869;83;20969;-52
2021/08/28 01:57:58;;;;;;;5.45;3.87;;;;;;;12.25;89.05;94345.71;1704617;83;21824;-53
2021/08/28 02:00:37;;;;;;;5.03;3.47;;;;;;;12.25;89.02;94340.83;1704721;84;20985;-52
2021/08/28 02:03:04;;;;;;;7.08;3.92;;;;;;;12.28;88.86;94342.64;1704395;84;20953;-53
2021/08/28 02:05:33;;;;;;;10.18;4.10;;;;;;;12.35;88.71;94341.69;1704660;84;21457;-52
2021/08/28 02:08:05;;;;;;;4.45;3.60;;;;;;;12.41;88.61;94345.33;1704474;83;21000;-56
2021/08/28 02:10:40;;;;;;;5.05;3.55;;;;;;;12.43;88.33;94360.05;1704401;83;21093;-52
2021/08/28 02:13:21;;;;;;;3.92;3.20;;;;;;;12.41;87.93;94353.60;1703253;83;21445;-53
2021/08/28 02:15:50;;;;;;;8.90;4.03;;;;;;;12.37;87.84;94357.75;1702505;83;21060;-53
2021/08/28 02:18:33;;;;;;;8.13;4.40;;;;;;;12.31;87.79;94351.36;1704399;83;21559;-52
2021/08/28 02:21:10;;;;;;;9.85;4.58;;;;;;;12.25;87.97;94356.74;1704920;83;20944;-53
2021/08/28 02:24:03;;;;;;;5.80;4.42;;;;;;;12.23;88.57;94357.08;1704477;83;21485;-53
2021/08/28 02:26:42;;;;;;;7.45;4.15;;;;;;;12.27;88.84;94355.66;1694014;84;20945;-53
2021/08/28 02:29:19;;;;;;;7.35;4.35;;;;;;;12.30;88.70;94354.72;1704425;84;21040;-54
2021/08/28 02:31:48;;;;;;;5.62;4.10;;;;;;;12.30;88.68;94356.09;1704490;83;21119;-53
2021/08/28 02:34:17;;;;;;;10.60;4.60;;;;;;;12.33;88.71;94361.30;1704486;84;20953;-52
2021/08/28 02:36:45;;;;;;;9.35;5.05;;;;;;;12.30;88.55;94353.34;1685152;83;21217;-53
2021/08/28 02:39:16;;;;;;;6.42;4.78;;;;;;;12.26;88.77;94358.27;1704274;84;20965;-53
2021/08/28 02:41:44;;;;;;;9.18;4.87;;;;;;;12.25;88.94;94361.52;1662164;83;21091;-54
2021/08/28 02:44:11;;;;;;;8.33;5.12;;;;;;;12.25;89.28;94371.91;1704455;83;20956;-53
2021/08/28 02:46:40;;;;;;;8.23;5.60;;;;;;;12.28;89.38;94360.57;1704469;84;21004;-53
2021/08/28 02:49:10;;;;;;;7.83;4.87;;;;;;;12.34;89.69;94365.59;1704449;84;21158;-53
2021/08/28 02:51:38;;;;;;;10.45;5.53;;;;;;;12.39;89.59;94366.33;1704630;83;21052;-53
2021/08/28 02:54:07;;;;;;;7.00;5.08;;;;;;;12.41;89.55;94375.67;1704338;84;21520;-53
2021/08/28 02:56:34;;;;;;;5.10;4.60;;;;;;;12.44;89.58;94369.22;1704606;84;21445;-53
2021/08/28 02:59:04;;;;;;;10.03;4.42;;;;;;;12.48;89.40;94368.42;1704468;84;20965;-52
2021/08/28 03:01:31;;;;;;;12.43;4.90;;;;;;;12.51;89.13;94370.27;1704606;83;21769;-53
2021/08/28 03:03:57;;;;;;;10.50;5.25;;;;;;;12.52;89.04;94382.05;1661547;84;21008;-53
2021/08/28 03:06:28;;;;;;;9.48;5.08;;;;;;;12.49;89.07;94379.60;1704348;84;21005;-53
2021/08/28 03:08:56;;;;;;;6.87;4.08;;;;;;;12.50;89.07;94378.40;1704338;84;21108;-53
2021/08/28 03:11:23;;;;;;;6.95;4.20;;;;;;;12.48;89.00;94372.55;1704631;83;21008;-53
2021/08/28 03:13:51;;;;;;;6.60;4.47;;;;;;;12.48;89.01;94378.70;1704362;84;21149;-53
2021/08/28 03:16:21;;;;;;;11.00;4.60;;;;;;;12.47;88.86;94382.06;1704262;83;21517;-53
2021/08/28 03:18:50;;;;;;;7.87;5.53;;;;;;;12.47;88.83;94386.20;1704374;84;21480;-53
2021/08/28 03:21:19;;;;;;;8.10;5.47;;;;;;;12.48;88.63;94386.35;1704534;84;21180;-53
2021/08/28 03:23:47;;;;;;;9.53;4.87;;;;;;;12.45;88.50;94382.41;1704479;83;21036;-53
2021/08/28 03:26:15;;;;;;;11.10;5.28;;;;;;;12.41;88.71;94386.70;1704446;83;21113;-53
2021/08/28 03:28:42;;;;;;;9.25;6.30;;;;;;;12.39;88.86;94391.93;1704400;84;20961;-53
2021/08/28 03:31:09;;;;;;;11.73;5.65;;;;;;;12.39;88.96;94390.55;1698578;83;21025;-53
2021/08/28 03:33:38;;;;;;;14.70;6.03;;;;;;;12.36;89.09;94400.36;1708042;82;20992;-53
2021/08/28 03:36:04;;;;;;;16.07;6.00;;;;;;;12.37;89.61;94401.89;1711645;83;21083;-52
2021/08/28 03:38:34;;;;;;;11.30;5.25;;;;;;;12.38;89.46;94408.33;1712197;82;21090;-53
2021/08/28 03:41:03;;;;;;;13.53;6.50;;;;;;;12.36;89.42;94414.16;1692430;83;20988;-53
2021/08/28 03:43:32;;;;;;;14.28;7.45;;;;;;;12.31;89.48;94411.44;1712202;82;21056;-53
2021/08/28 04:41:30;;;;;;;10.98;6.92;;;;;;;12.26;92.18;94403.78;1777789;79;26331;-69
2021/08/28 04:43:57;;;;;;;13.70;6.30;;;;;;;12.27;92.24;94399.78;1733982;82;21026;-69
2021/08/28 04:46:25;;;;;;;7.87;6.33;;;;;;;12.40;92.37;94400.35;1727525;82;21154;-69
2021/08/28 04:48:53;;;;;;;11.78;6.62;;;;;;;12.53;92.42;94406.43;1727917;82;21032;-69
2021/08/28 04:51:28;;;;;;;11.50;6.22;;;;;;;12.68;92.28;94415.55;1676332;82;20987;-69
2021/08/28 04:53:55;;;;;;;13.10;6.22;;;;;;;12.80;92.20;94415.93;1746486;81;20998;-69
2021/08/28 04:56:21;;;;;;;7.87;5.90;;;;;;;12.95;91.89;94423.70;1734846;81;20992;-69
2021/08/28 04:58:49;;;;;;;6.78;5.50;;;;;;;13.05;91.29;94425.18;1751629;81;21207;-70
2021/08/28 05:01:34;;;;;;;7.50;5.47;;;;;;;13.17;90.89;94424.94;1727457;82;20915;-70
2021/08/28 05:04:20;;;;;;;7.25;4.80;;;;;;;13.33;90.40;94427.88;1708821;82;21061;-66
2021/08/28 05:06:48;;;;;;;5.60;5.03;;;;;;;13.45;89.53;94424.11;1721368;81;21046;-70
2021/08/28 05:09:18;;;;;;;7.92;5.70;;;;;;;13.55;88.98;94436.59;1726076;81;21026;-70
2021/08/28 05:11:47;;;;;;;8.93;4.97;;;;;;;13.66;88.23;94439.59;1744705;81;21162;-71
2021/08/28 05:14:14;;;;;;;5.20;4.60;;;;;;;13.73;87.40;94435.06;1733860;82;21023;-70
2021/08/28 05:16:42;;;;;;;6.42;4.08;;;;;;;13.81;86.53;94432.83;1731707;81;20968;-68
2021/08/28 05:19:10;;;;;;;8.98;4.53;;;;;;;13.89;85.80;94441.52;1735471;81;21042;-70
2021/08/28 05:21:38;;;;;;;6.78;4.62;;;;;;;14.01;85.26;94436.34;1708213;82;21019;-70
2021/08/28 05:24:21;;;;;;;6.45;4.97;;;;;;;14.13;84.80;94433.89;1723465;81;21173;-70
2021/08/28 05:26:50;;;;;;;7.65;5.20;;;;;;;14.28;84.65;94442.98;1727711;81;21466;-70
2021/08/28 05:29:18;;;;;;;7.17;4.45;;;;;;;14.38;84.47;94443.05;1728795;82;21018;-71
2021/08/28 05:31:44;;;;;;;9.68;4.70;;;;;;;14.49;84.32;94441.22;1720893;81;21110;-69
2021/08/28 05:34:13;;;;;;;8.83;4.67;;;;;;;14.64;83.81;94434.41;1719630;82;21593;-70
2021/08/28 05:36:58;;;;;;;15.20;5.22;;;;;;;14.76;83.33;94438.88;1740506;81;21159;-69
2021/08/28 05:39:27;;;;;;;12.98;5.55;;;;;;;14.84;82.88;94446.17;1708268;82;21455;-71
2021/08/28 05:41:54;;;;;;;7.17;5.12;;;;;;;14.86;82.61;94447.22;1704928;83;20981;-70
2021/08/28 05:44:21;;;;;;;7.95;4.70;;;;;;;14.83;81.99;94446.77;1688802;83;21006;-69
2021/08/28 05:46:50;;;;;;;19.10;11.40;;;;;;;14.81;80.94;94447.13;1680401;83;21488;-70
2021/08/28 05:49:19;;;;;;;5.15;4.50;;;;;;;14.79;80.38;94439.93;1687291;83;21105;-70
2021/08/28 05:51:53;;;;;;;10.70;5.17;;;;;;;14.75;79.82;94442.11;1711577;82;21089;-69
2021/08/28 05:54:20;;;;;;;11.38;6.55;;;;;;;14.76;80.48;94448.57;1670946;85;21502;-70
2021/08/28 05:56:49;;;;;;;10.50;5.90;;;;;;;14.80;81.18;94453.92;1694570;82;21005;-67
2021/08/28 05:59:17;;;;;;;21.12;14.38;;;;;;;14.83;81.21;94461.27;1708032;83;21100;-67
2021/08/28 06:01:44;;;;;;;16.80;10.85;;;;;;;14.81;81.45;94450.65;1729430;81;21619;-70
2021/08/28 06:04:11;;;;;;;19.07;10.85;;;;;;;14.86;81.26;94448.61;1743046;81;20983;-69
2021/08/28 06:06:57;;;;;;;18.73;8.95;;;;;;;14.92;81.14;94448.05;1670939;82;21117;-69
2021/08/28 06:09:43;;;;;;;12.13;6.37;;;;;;;15.04;80.22;94444.18;1674551;83;21014;-63
2021/08/28 06:12:21;;;;;;;20.15;6.05;;;;;;;15.17;79.45;94448.03;1668420;84;21063;-68
2021/08/28 06:14:49;;;;;;;10.08;4.78;;;;;;;15.26;78.97;94439.56;1664970;83;21608;-69
2021/08/28 06:17:19;;;;;;;6.80;4.42;;;;;;;15.37;78.57;94435.59;1677923;83;21507;-70
2021/08/28 06:19:47;;;;;;;6.67;4.75;;;;;;;15.50;78.43;94429.83;1704571;83;21206;-71
2021/08/28 06:22:14;;;;;;;7.80;4.60;;;;;;;15.62;77.83;94419.63;1690102;83;21461;-71
2021/08/28 06:24:41;;;;;;;7.50;4.37;;;;;;;15.71;77.28;94423.02;1699311;82;21121;-70
2021/08/28 06:27:10;;;;;;;10.45;3.80;;;;;;;15.78;76.28;94417.67;1705752;82;21229;-64
2021/08/28 06:29:37;;;;;;;5.85;3.30;;;;;;;15.79;75.85;94424.13;1675497;82;21025;-66
2021/08/28 06:32:05;;;;;;;7.67;3.15;;;;;;;15.84;74.86;94412.31;1679217;82;21086;-67
2021/08/28 06:34:32;;;;;;;8.48;5.17;;;;;;;15.88;74.37;94414.89;1699180;82;21106;-68
2021/08/28 06:36:59;;;;;;;5.90;3.95;;;;;;;15.93;74.01;94426.02;1696107;82;21011;-67
2021/08/28 06:39:44;;;;;;;8.75;5.83;;;;;;;16.00;72.96;94426.98;1683877;83;21219;-70
2021/08/28 06:42:11;;;;;;;5.05;3.77;;;;;;;16.10;72.56;94425.56;1679792;83;21070;-66
2021/08/28 06:44:57;;;;;;;7.20;3.17;;;;;;;16.18;71.61;94416.95;1666107;82;21358;-71
2021/08/28 06:47:27;;;;;;;10.30;2.92;;;;;;;16.27;69.77;94425.09;1695262;83;21119;-73
2021/08/28 06:50:13;;;;;;;4.30;2.92;;;;;;;16.31;69.07;94420.84;1689403;82;21101;-70
2021/08/28 06:52:45;;;;;;;4.30;3.15;;;;;;;16.33;68.64;94406.48;1666070;82;21853;-70
2021/08/28 06:55:23;;;;;;;6.90;2.80;;;;;;;16.37;68.98;94404.27;1614104;85;21169;-71
2021/08/28 06:57:58;;;;;;;3.27;2.65;;;;;;;16.47;66.94;94411.16;1673308;82;21068;-64
2021/08/28 07:00:27;;;;;;;5.40;2.95;;;;;;;16.52;65.00;94414.63;1676175;83;21155;-71
2021/08/28 07:03:12;;;;;;;4.83;2.65;;;;;;;16.55;65.30;94417.80;1670787;83;21554;-69
2021/08/28 07:05:38;;;;;;;18.40;5.87;;;;;;;16.61;65.11;94412.42;1687105;83;21136;-70
2021/08/28 07:08:07;;;;;;;4.75;2.75;;;;;;;16.68;65.14;94409.19;1685063;82;21148;-71
2021/08/28 07:10:34;;;;;;;10.35;4.20;;;;;;;16.75;64.60;94406.58;1695507;82;21589;-71
2021/08/28 07:13:03;;;;;;;4.53;2.95;;;;;;;16.80;64.35;94408.63;1689546;82;21034;-72
2021/08/28 07:15:32;;;;;;;3.15;2.47;;;;;;;16.86;63.76;94412.20;1678127;83;21041;-69
2021/08/28 07:18:00;;;;;;;5.80;3.47;;;;;;;16.94;62.01;94414.66;1680852;83;21163;-66
2021/08/28 07:20:27;;;;;;;3.30;2.50;;;;;;;16.98;61.87;94422.91;1691847;83;21056;-67
2021/08/28 07:22:54;;;;;;;5.90;2.70;;;;;;;17.02;61.03;94424.83;1685062;82;21066;-73
2021/08/28 07:25:30;;;;;;;2.55;2.35;;;;;;;17.06;61.95;94427.38;1696712;83;21022;-71
2021/08/28 07:27:57;;;;;;;3.17;2.10;;;;;;;17.14;61.92;94427.04;1684635;83;21086;-66
2021/08/28 07:30:43;;;;;;;3.62;2.33;;;;;;;17.24;58.97;94422.81;1708012;81;21140;-71
2021/08/28 07:33:10;;;;;;;4.67;2.25;;;;;;;17.29;56.36;94417.91;1698347;82;21466;-72
2021/08/28 07:35:37;;;;;;;5.97;2.50;;;;;;;17.31;56.08;94414.73;1689042;83;21109;-72
2021/08/28 07:38:04;;;;;;;2.85;2.45;;;;;;;17.34;56.67;94412.41;1694875;82;21011;-70
2021/08/28 07:40:30;;;;;;;7.20;4.15;;;;;;;17.40;55.34;94399.89;1694890;81;21084;-64
2021/08/28 07:42:59;;;;;;;5.85;2.02;;;;;;;17.45;55.90;94408.91;1705875;82;21463;-72
2021/08/28 07:45:27;;;;;;;8.90;2.50;;;;;;;17.52;53.72;94410.59;1690281;82;21154;-68
2021/08/28 07:47:58;;;;;;;7.57;4.47;;;;;;;17.56;53.26;94408.94;1695029;82;21894;-68
2021/08/28 07:50:25;;;;;;;4.65;4.17;;;;;;;17.59;52.59;94416.28;1692560;82;21041;-69
2021/08/28 07:52:52;;;;;;;2.98;2.70;;;;;;;17.66;52.69;94405.43;1698137;82;20991;-65
2021/08/28 07:55:19;;;;;;;10.32;9.33;;;;;;;17.74;52.05;94406.48;1685328;82;21180;-69
2021/08/28 07:57:46;;;;;;;4.87;4.37;;;;;;;17.86;52.56;94421.19;1690041;83;21006;-70
2021/08/28 08:00:14;;;;;;;6.75;2.12;;;;;;;17.99;51.81;94414.53;1696912;83;21022;-71
2021/08/28 08:02:42;;;;;;;9.33;2.22;;;;;;;18.11;51.20;94414.66;1670995;85;21090;-71
2021/08/28 08:05:11;;;;;;;5.15;2.47;;;;;;;18.21;50.17;94409.74;1665550;84;21011;-74
2021/08/28 08:07:49;;;;;;;6.58;2.90;;;;;;;18.24;50.74;94410.89;1699031;82;21230;-72
2021/08/28 08:10:31;;;;;;;6.53;2.27;;;;;;;18.32;50.38;94416.11;1694300;82;20999;-71
2021/08/28 08:13:16;;;;;;;2.10;1.90;;;;;;;18.41;49.84;94415.11;1701058;82;20995;-69
2021/08/28 08:16:01;;;;;;;3.17;2.37;;;;;;;18.51;48.75;94407.42;1692549;82;21065;-70
2021/08/28 08:18:35;;;;;;;1.85;1.65;;;;;;;18.57;48.04;94404.61;1733295;81;21347;-66
2021/08/28 08:21:20;;;;;;;2.75;2.52;;;;;;;18.55;48.49;94406.52;1666858;84;21815;-71
2021/08/28 08:24:04;;;;;;;2.83;2.62;;;;;;;18.45;48.60;94408.67;1685294;82;20968;-69
2021/08/28 08:26:33;;;;;;;6.33;2.40;;;;;;;18.30;49.02;94396.36;1606936;85;21038;-71
2021/08/28 08:29:18;;;;;;;12.75;2.60;;;;;;;18.29;48.90;94391.31;1692301;83;21057;-72
2021/08/28 08:31:53;;;;;;;4.80;3.50;;;;;;;18.34;49.33;94401.08;1699028;84;21464;-72
2021/08/28 08:34:39;;;;;;;2.87;2.02;;;;;;;18.48;49.97;94394.47;1699827;83;21561;-69
2021/08/28 08:37:07;;;;;;;5.62;2.45;;;;;;;18.67;49.02;94387.12;1712016;83;21057;-66
2021/08/28 08:39:34;;;;;;;10.45;2.33;;;;;;;18.90;49.62;94388.64;1681116;83;21045;-71
2021/08/28 08:42:02;;;;;;;6.65;2.05;;;;;;;19.11;47.74;94402.41;1660856;83;21031;-71
2021/08/28 08:44:30;;;;;;;3.77;2.37;;;;;;;19.30;47.38;94390.85;1673163;83;21150;-67
2021/08/28 08:46:58;;;;;;;11.50;2.60;;;;;;;19.52;47.91;94388.63;1706481;82;21140;-71
2021/08/28 08:49:25;;;;;;;2.70;2.50;;;;;;;19.80;47.64;94394.84;1684996;82;21501;-72
2021/08/28 08:51:53;;;;;;;2.40;1.70;;;;;;;20.07;47.04;94396.11;1682559;83;21029;-74
2021/08/28 08:54:21;;;;;;;6.78;4.37;;;;;;;20.25;45.38;94408.06;1683675;83;21194;-72
2021/08/28 08:56:49;;;;;;;10.10;7.67;;;;;;;20.25;45.34;94415.83;1657818;85;21076;-69
2021/08/28 08:59:16;;;;;;;4.35;3.35;;;;;;;20.21;47.28;94425.09;1673488;84;22240;-72
2021/08/28 09:01:45;;;;;;;5.05;4.03;;;;;;;20.22;45.99;94418.88;1685243;82;21002;-71
2021/08/28 09:04:16;;;;;;;3.27;2.40;;;;;;;20.22;45.77;94416.09;1660230;84;21077;-71
2021/08/28 09:06:49;;;;;;;2.50;1.80;;;;;;;20.23;46.80;94412.02;1682927;84;21048;-69
2021/08/28 09:09:17;;;;;;;12.33;7.90;;;;;;;20.25;46.41;94413.03;1663423;84;21189;-70
2021/08/28 09:12:01;;;;;;;6.47;3.27;;;;;;;20.27;46.60;94409.70;1657551;85;22007;-74
2021/08/28 09:14:28;;;;;;;;;;;;;;;20.29;46.34;94402.33;1665392;84;21075;-72
2021/08/28 09:16:55;;;;;;;4.12;2.92;;;;;;;20.35;47.26;94413.48;1697003;83;20222;-70
2021/08/28 09:19:37;;;;;;;2.50;2.17;;;;;;;20.41;46.87;94407.95;1697864;82;21033;-68
2021/08/28 09:22:10;;;;;;;1.90;1.80;;;;;;;20.49;47.30;94407.52;1696704;82;21492;-70
2021/08/28 09:24:44;;;;;;;2.25;1.77;;;;;;;20.56;46.72;94403.41;1697245;82;21165;-65
2021/08/28 09:27:12;;;;;;;3.67;2.67;;;;;;;20.56;46.65;94418.12;1727211;82;21039;-70
2021/08/28 09:29:44;;;;;;;2.00;1.90;;;;;;;20.66;46.42;94424.94;1662456;84;21069;-72
2021/08/28 09:32:12;;;;;;;3.25;1.65;;;;;;;20.68;45.47;94424.39;1720358;82;21043;-73
2021/08/28 09:34:39;;;;;;;4.80;2.10;;;;;;;20.69;44.52;94411.93;1697251;83;21070;-73
2021/08/28 09:37:07;;;;;;;4.83;1.98;;;;;;;20.71;43.79;94417.79;1691504;83;21902;-72
2021/08/28 09:39:47;;;;;;;8.88;2.83;;;;;;;20.65;43.76;94417.05;1688643;84;21039;-69
2021/08/28 09:42:21;;;;;;;2.08;1.87;;;;;;;20.59;44.54;94412.16;1688257;83;21106;-71
2021/08/28 09:44:52;;;;;;;1.70;1.60;;;;;;;20.67;44.95;94417.29;1687610;83;21069;-73
2021/08/28 09:47:23;;;;;;;4.05;1.98;;;;;;;20.82;44.95;94420.48;1690829;83;21603;-74
2021/08/28 09:49:51;;;;;;;5.45;2.45;;;;;;;20.99;44.11;94416.30;1692167;83;21141;-72
2021/08/28 09:52:21;;;;;;;2.40;1.70;;;;;;;21.14;43.94;94411.70;1679313;83;21072;-71
2021/08/28 09:54:49;;;;;;;3.75;1.80;;;;;;;21.37;43.15;94411.59;1667243;84;21140;-75
2021/08/28 09:57:17;;;;;;;2.15;1.85;;;;;;;21.48;42.43;94418.48;1645865;84;21071;-73
2021/08/28 09:59:46;;;;;;;3.77;1.65;;;;;;;21.55;42.12;94408.08;1666762;84;21097;-68
2021/08/28 10:02:15;;;;;;;1.50;1.40;;;;;;;21.62;42.24;94413.11;1644255;85;21193;-73
2021/08/28 10:04:57;;;;;;;2.30;1.47;;;;;;;21.79;41.46;94412.27;1636897;85;21170;-74
2021/08/28 10:07:25;;;;;;;;;;;;;;;22.03;40.55;94417.84;1625026;85;21168;-70
2021/08/28 10:09:58;;;;;;;6.12;1.47;;;;;;;22.31;39.44;94416.19;1656595;85;20160;-75
2021/08/28 10:12:27;;;;;;;4.05;2.10;;;;;;;22.46;38.61;94420.05;1678440;85;21567;-70
2021/08/28 10:14:55;;;;;;;1.98;1.70;;;;;;;22.57;38.40;94416.33;1679153;85;21309;-73
2021/08/28 10:17:25;;;;;;;1.80;1.65;;;;;;;22.81;39.57;94401.53;1678882;85;21295;-73
2021/08/28 10:19:55;;;;;;;5.12;2.08;;;;;;;22.84;39.23;94394.11;1679029;85;21015;-72
2021/08/28 10:22:26;;;;;;;5.37;1.75;;;;;;;22.78;39.19;94404.64;1678846;85;21015;-72
2021/08/28 10:24:57;;;;;;;1.70;1.60;;;;;;;22.98;38.29;94416.05;1674889;84;21137;-73
2021/08/28 10:27:26;;;;;;;;;;;;;;;23.22;37.63;94425.73;1676362;85;21159;-68
2021/08/28 10:29:53;;;;;;;1.75;1.22;;;;;;;23.33;37.67;94419.94;1678785;85;20171;-73
2021/08/28 10:32:20;;;;;;;1.98;1.80;;;;;;;23.40;36.99;94424.16;1676516;85;21996;-72
2021/08/28 10:34:49;;;;;;;2.42;1.57;;;;;;;23.42;37.45;94420.91;1679837;85;21004;-71
2021/08/28 10:37:17;;;;;;;29.67;22.25;;;;;;;23.41;38.60;94422.86;1721100;82;21143;-72
2021/08/28 10:39:50;;;;;;;5.45;3.95;;;;;;;23.48;38.52;94428.60;1732238;82;21049;-73
2021/08/28 10:42:16;;;;;;;3.37;2.02;;;;;;;23.51;37.22;94432.37;1729095;82;21035;-71
2021/08/28 10:44:44;;;;;;;3.15;1.37;;;;;;;23.74;36.37;94434.22;1691633;82;21047;-75
2021/08/28 10:47:15;;;;;;;1.92;1.40;;;;;;;24.17;36.42;94437.48;1725687;82;21096;-73
2021/08/28 10:49:44;;;;;;;3.37;1.70;;;;;;;24.31;35.24;94427.70;1726154;82;21522;-73
2021/08/28 10:52:24;;;;;;;14.25;1.70;;;;;;;24.31;35.42;94420.67;1729053;82;21846;-74
2021/08/28 10:54:59;;;;;;;1.02;0.93;;;;;;;24.36;35.43;94409.98;1700585;82;21085;-74
2021/08/28 10:57:27;;;;;;;1.35;1.25;;;;;;;24.17;35.34;94414.99;1699905;83;21086;-70
2021/08/28 11:00:05;;;;;;;4.12;1.20;;;;;;;23.92;35.67;94419.33;1684512;83;21451;-72
2021/08/28 11:02:56;;;;;;;1.92;1.30;;;;;;;23.67;36.26;94420.06;1705937;84;21042;-73
2021/08/28 11:05:32;;;;;;;3.27;1.77;;;;;;;23.43;37.94;94405.56;1699913;83;21149;-71
2021/08/28 11:08:18;;;;;;;1.40;1.30;;;;;;;23.31;38.90;94405.68;1702058;83;21065;-72
2021/08/28 11:11:24;;;;;;;2.80;1.30;;;;;;;23.31;39.11;94402.11;1706221;83;21044;-73
2021/08/28 11:13:59;;;;;;;2.30;1.50;;;;;;;23.38;39.55;94398.02;1696855;83;21193;-74
2021/08/28 11:16:51;;;;;;;2.67;1.82;;;;;;;23.58;37.73;94405.06;1665982;85;21408;-74
2021/08/28 11:19:31;;;;;;;5.90;1.67;;;;;;;23.72;37.83;94410.12;1673041;82;22340;-72
2021/08/28 11:21:58;;;;;;;4.05;1.20;;;;;;;23.90;37.27;94415.57;1640155;85;21106;-71
2021/08/28 11:24:27;;;;;;;1.50;1.40;;;;;;;24.18;36.44;94407.41;1691773;83;21575;-69
2021/08/28 11:26:57;;;;;;;1.37;1.22;;;;;;;24.48;36.38;94412.63;1684182;83;21956;-69
2021/08/28 11:29:26;;;;;;;1.50;1.10;;;;;;;24.90;35.91;94417.06;1693927;83;21494;-72
2021/08/28 11:32:14;;;;;;;4.92;2.85;;;;;;;25.62;35.99;94401.89;1684759;83;21318;-71
2021/08/28 11:34:42;;;;;;;1.90;1.67;;;;;;;26.19;35.97;94411.20;1701873;83;21050;-72
2021/08/28 11:37:38;;;;;;;6.70;2.90;;;;;;;26.50;35.43;94403.73;1691387;83;21116;-72
2021/08/28 11:40:09;;;;;;;3.33;1.35;;;;;;;26.68;35.28;94398.42;1681242;83;21075;-71
2021/08/28 11:42:36;;;;;;;3.25;1.37;;;;;;;26.76;34.64;94404.86;1688720;84;21008;-73
2021/08/28 11:45:04;;;;;;;1.60;1.42;;;;;;;26.86;32.95;94395.19;1664386;83;21182;-72
2021/08/28 11:47:31;;;;;;;1.32;1.20;;;;;;;26.99;32.93;94401.41;1691622;83;21161;-72
2021/08/28 11:49:59;;;;;;;3.02;1.80;;;;;;;27.14;33.34;94399.28;1691180;83;21491;-72
2021/08/28 11:52:31;;;;;;;1.85;1.42;;;;;;;27.14;34.51;94398.64;1680705;83;21036;-73
2021/08/28 11:54:58;;;;;;;1.55;1.20;;;;;;;26.73;33.00;94396.75;1661019;84;20986;-72
2021/08/28 11:57:25;;;;;;;1.35;1.25;;;;;;;26.21;33.12;94396.64;1673142;84;21141;-73
2021/08/28 11:59:52;;;;;;;3.77;1.40;;;;;;;25.79;33.45;94393.73;1693231;83;21005;-73
2021/08/28 12:02:20;;;;;;;3.98;1.30;;;;;;;25.34;34.57;94392.03;1673153;83;21000;-73
2021/08/28 12:04:47;;;;;;;2.15;1.77;;;;;;;25.08;35.71;94393.59;1701279;83;21114;-71
2021/08/28 12:07:13;;;;;;;3.25;1.65;;;;;;;24.87;36.60;94392.80;1697965;83;21095;-74
2021/08/28 12:09:40;;;;;;;8.60;2.85;;;;;;;24.79;36.04;94394.80;1695358;84;21154;-72
2021/08/28 12:12:08;;;;;;;4.35;2.20;;;;;;;24.68;35.91;94390.83;1689683;83;21559;-71
2021/08/28 12:14:35;;;;;;;2.70;1.35;;;;;;;24.48;36.26;94390.13;1688062;83;20992;-72
2021/08/28 12:17:03;;;;;;;2.92;1.90;;;;;;;24.46;36.66;94392.73;1700918;83;21008;-72
2021/08/28 12:19:33;;;;;;;3.75;2.50;;;;;;;24.40;37.14;94390.04;1693325;83;21024;-71
2021/08/28 12:22:04;;;;;;;4.17;2.47;;;;;;;24.20;37.60;94395.62;1683298;83;21178;-69
2021/08/28 12:24:40;;;;;;;7.20;3.10;;;;;;;24.03;38.35;94386.80;1685949;83;20985;-72
2021/08/28 12:27:11;;;;;;;5.62;2.33;;;;;;;23.81;39.15;94381.61;1686656;83;20969;-70
2021/08/28 12:29:40;;;;;;;3.10;2.00;;;;;;;23.63;39.69;94379.67;1686625;83;21615;-72
2021/08/28 12:32:17;;;;;;;2.00;1.62;;;;;;;23.43;41.07;94374.67;1690839;83;20940;-73
2021/08/28 12:34:48;;;;;;;1.90;1.50;;;;;;;23.20;40.67;94370.78;1702879;84;21173;-72
2021/08/28 12:37:18;;;;;;;5.13;1.63;;;;;;;22.98;41.03;94364.80;1698188;83;21024;-73
2021/08/28 12:39:52;;;;;;;4.42;3.55;;;;;;;22.73;41.63;94364.20;1695612;83;21032;-74
2021/08/28 12:42:22;;;;;;;2.33;2.12;;;;;;;22.55;41.39;94374.81;1675997;83;21024;-73
2021/08/28 12:44:53;;;;;;;3.30;2.08;;;;;;;22.42;41.64;94371.95;1663628;83;21016;-72
2021/08/28 12:47:23;;;;;;;2.30;1.60;;;;;;;22.36;41.78;94374.06;1656120;84;21145;-72